Col Jabara, KS

16:54 CDT le 30 septembre 2014 (GMT -0500)
Col Jabara | Change Station
CLOSE
Current Station
Aéroport
Location: Wichita Jabara,
Altitude: 433 m
Stations météo à proximité
4.1 Earthquake: Perry, Oklahoma (18 hours ago)  

Alt. 433 m 37.75 °N, 97.22 °W | Updated 1 hour ago

Overcast
Couvert
28 ° C
Paraît 28 ° C
N
32
Vent Variable Vent de Sud

Aujourd'hui
Haut(e) -- | Bas -- ° C
--% Risque de précip.
Hier
Haut(e) -- | Bas -- ° C
Precip. -- mm
7:23 AM 7:13 PM
Lune montante, 40% visible
Pression 1006 hPa
Visibilité 16.1 Kilomètres
Nuages Couvert 2438 m
indice de chaleur 28 ° C
Point de rosée 14 ° C
Humidité 42%
Précipitations 0.0 mm
Profondeur de la couche neigeuse Non disponible.
UV 1 sur 12
Pollen 4.50 sur 12
Qualité de l'air Non disponible.
Flu Activity Non disponible.
METAR KAAO 302054Z AUTO 18017KT 10SM OVC080 28/14 A2975 RMK AO2 PK WND 18026/1958 SLP061 T02830144 56025

More Conditions Fewer Conditions

Pression 1006 hPa
Visibilité 16.1 Kilomètres
Nuages Couvert 2438 m
indice de chaleur 28 ° C
Point de rosée 14 ° C
Humidité 42%
Précipitations 0.0 mm
Profondeur de la couche neigeuse Non disponible.
UV 1 sur 12
Pollen 4.50 sur 12
Qualité de l'air Non disponible.
Flu Activity Non disponible.
METAR KAAO 302054Z AUTO 18017KT 10SM OVC080 28/14 A2975 RMK AO2 PK WND 18026/1958 SLP061 T02830144 56025

More Conditions Fewer Conditions

10-Day Weather Forecast

Almanac

Astronomie

Sep. 30, 2014 Lever Coucher
Temps réel 07:23 CDT 19:13 CDT
Crépuscule civil 06:57 CDT 19:39 CDT
Crépuscule nautique 06:27 CDT 20:09 CDT
Crépuscule astronomique 05:56 CDT 20:40 CDT
Lune 13:27 CDT 23:49 CDT
Durée de lumière visible 12h 42m
Longueur du jour
11h 49m
Tomorrow will be 2m 24s shorter.
Lune montante, 40% of the Moon is Illuminated
Aujourd'hui
Lune montante
Oct 1
Premier quartier
Oct 8
Pleine lune
Oct 15
Dernier quartier
Oct 23
Nouveau

Extrêmes aujourd'hui

State Highs State Lows

Community

WunderPhotos

Upload Photos

1,757,755 Photos téléchargées !

Nearby

Épaisseur de neige

Station Depth Altitude
Pas de nouvelles chutes de neige

Activité sismique

Ville Distance Mag. Time & Date
Perry, Oklahoma 174 Kilomètres 2.6 14:34 CDT
2014-09-30
Harper, Kansas 85 Kilomètres 2.9 13:49 CDT
2014-09-30
Yale, Oklahoma 176 Kilomètres 2.6 11:29 CDT
2014-09-30
Harper, Kansas 84 Kilomètres 3.1 10:24 CDT
2014-09-30
Minimum magnitude displayed is 2.5.

Températures des eaux côtières

Lieu Température
Aucun rapport de station

Stations météo à proximité